sensor_id;sensor_type;location;lat;lon;timestamp;temperature;humidity
20174;DHT22;10246;50.620;7.232;2022-10-16T00:00:47;15.00;19.00
20174;DHT22;10246;50.620;7.232;2022-10-16T00:03:15;15.00;19.50
20174;DHT22;10246;50.620;7.232;2022-10-16T00:05:43;14.90;19.20
20174;DHT22;10246;50.620;7.232;2022-10-16T00:08:11;14.90;19.40
20174;DHT22;10246;50.620;7.232;2022-10-16T00:10:38;14.90;19.30
20174;DHT22;10246;50.620;7.232;2022-10-16T00:13:06;14.90;19.20
20174;DHT22;10246;50.620;7.232;2022-10-16T00:15:34;14.80;19.50
20174;DHT22;10246;50.620;7.232;2022-10-16T00:18:02;14.80;20.10
20174;DHT22;10246;50.620;7.232;2022-10-16T00:20:33;14.70;20.50
20174;DHT22;10246;50.620;7.232;2022-10-16T00:23:02;14.70;21.00
20174;DHT22;10246;50.620;7.232;2022-10-16T00:25:29;14.70;21.20
20174;DHT22;10246;50.620;7.232;2022-10-16T00:27:58;14.70;21.40
20174;DHT22;10246;50.620;7.232;2022-10-16T00:30:24;14.60;21.60
20174;DHT22;10246;50.620;7.232;2022-10-16T00:32:53;14.70;21.60
20174;DHT22;10246;50.620;7.232;2022-10-16T00:35:20;14.60;21.10
20174;DHT22;10246;50.620;7.232;2022-10-16T00:37:48;14.70;21.00
20174;DHT22;10246;50.620;7.232;2022-10-16T00:40:14;14.60;21.00
20174;DHT22;10246;50.620;7.232;2022-10-16T00:42:41;14.60;21.20
20174;DHT22;10246;50.620;7.232;2022-10-16T00:45:09;14.60;20.70
20174;DHT22;10246;50.620;7.232;2022-10-16T00:47:38;14.60;20.10
20174;DHT22;10246;50.620;7.232;2022-10-16T00:50:08;14.60;21.30
20174;DHT22;10246;50.620;7.232;2022-10-16T00:52:36;14.50;21.20
20174;DHT22;10246;50.620;7.232;2022-10-16T00:55:09;14.50;21.50
20174;DHT22;10246;50.620;7.232;2022-10-16T00:57:36;14.60;20.90
20174;DHT22;10246;50.620;7.232;2022-10-16T01:00:05;14.50;20.70
20174;DHT22;10246;50.620;7.232;2022-10-16T01:02:32;14.50;20.80
20174;DHT22;10246;50.620;7.232;2022-10-16T01:04:59;14.50;21.00
20174;DHT22;10246;50.620;7.232;2022-10-16T01:07:36;14.40;21.40
20174;DHT22;10246;50.620;7.232;2022-10-16T01:10:13;14.40;21.40
20174;DHT22;10246;50.620;7.232;2022-10-16T01:12:47;14.40;21.40
20174;DHT22;10246;50.620;7.232;2022-10-16T01:15:20;14.40;21.20
20174;DHT22;10246;50.620;7.232;2022-10-16T01:17:56;14.40;21.50
20174;DHT22;10246;50.620;7.232;2022-10-16T01:20:27;14.40;21.90
20174;DHT22;10246;50.620;7.232;2022-10-16T01:23:10;14.40;21.80
20174;DHT22;10246;50.620;7.232;2022-10-16T01:26:02;14.40;21.70
20174;DHT22;10246;50.620;7.232;2022-10-16T01:28:39;14.40;21.90
20174;DHT22;10246;50.620;7.232;2022-10-16T01:31:09;14.40;21.90
20174;DHT22;10246;50.620;7.232;2022-10-16T01:33:41;14.40;22.00
20174;DHT22;10246;50.620;7.232;2022-10-16T01:36:13;14.50;21.70
20174;DHT22;10246;50.620;7.232;2022-10-16T01:38:44;14.60;21.30
20174;DHT22;10246;50.620;7.232;2022-10-16T01:41:15;14.60;21.30
20174;DHT22;10246;50.620;7.232;2022-10-16T01:43:47;14.60;21.80
20174;DHT22;10246;50.620;7.232;2022-10-16T01:46:17;14.50;22.00
20174;DHT22;10246;50.620;7.232;2022-10-16T01:48:45;14.50;22.40
20174;DHT22;10246;50.620;7.232;2022-10-16T01:51:14;14.40;22.10
20174;DHT22;10246;50.620;7.232;2022-10-16T01:53:44;14.40;22.00
20174;DHT22;10246;50.620;7.232;2022-10-16T01:56:14;14.60;21.00
20174;DHT22;10246;50.620;7.232;2022-10-16T01:58:46;14.60;20.50
20174;DHT22;10246;50.620;7.232;2022-10-16T02:01:16;14.70;20.20
20174;DHT22;10246;50.620;7.232;2022-10-16T02:03:46;14.80;19.70
20174;DHT22;10246;50.620;7.232;2022-10-16T02:06:15;14.80;20.00
20174;DHT22;10246;50.620;7.232;2022-10-16T02:08:42;14.80;20.10
20174;DHT22;10246;50.620;7.232;2022-10-16T02:11:10;14.70;20.40
20174;DHT22;10246;50.620;7.232;2022-10-16T02:13:40;14.70;20.40
20174;DHT22;10246;50.620;7.232;2022-10-16T02:16:12;14.70;20.60
20174;DHT22;10246;50.620;7.232;2022-10-16T02:18:40;14.70;21.10
20174;DHT22;10246;50.620;7.232;2022-10-16T02:21:14;14.70;21.10
20174;DHT22;10246;50.620;7.232;2022-10-16T02:23:49;14.70;21.30
20174;DHT22;10246;50.620;7.232;2022-10-16T02:26:22;14.80;21.30
20174;DHT22;10246;50.620;7.232;2022-10-16T02:28:54;14.70;21.20
20174;DHT22;10246;50.620;7.232;2022-10-16T02:31:27;14.80;21.30
20174;DHT22;10246;50.620;7.232;2022-10-16T02:33:58;14.70;21.30
20174;DHT22;10246;50.620;7.232;2022-10-16T02:36:25;14.80;21.50
20174;DHT22;10246;50.620;7.232;2022-10-16T02:38:53;14.80;22.30
20174;DHT22;10246;50.620;7.232;2022-10-16T02:41:20;14.80;21.50
20174;DHT22;10246;50.620;7.232;2022-10-16T02:43:47;14.80;21.20
20174;DHT22;10246;50.620;7.232;2022-10-16T02:46:14;14.80;21.00
20174;DHT22;10246;50.620;7.232;2022-10-16T02:48:42;14.80;21.30
20174;DHT22;10246;50.620;7.232;2022-10-16T02:51:09;14.80;21.50
20174;DHT22;10246;50.620;7.232;2022-10-16T02:53:36;14.80;21.50
20174;DHT22;10246;50.620;7.232;2022-10-16T02:56:03;14.80;21.50
20174;DHT22;10246;50.620;7.232;2022-10-16T02:58:30;14.70;21.50
20174;DHT22;10246;50.620;7.232;2022-10-16T03:00:57;14.80;21.70
20174;DHT22;10246;50.620;7.232;2022-10-16T03:03:23;14.70;21.80
20174;DHT22;10246;50.620;7.232;2022-10-16T03:05:51;14.70;21.80
20174;DHT22;10246;50.620;7.232;2022-10-16T03:08:18;14.80;22.10
20174;DHT22;10246;50.620;7.232;2022-10-16T03:10:48;14.80;22.10
20174;DHT22;10246;50.620;7.232;2022-10-16T03:13:15;14.80;22.10
20174;DHT22;10246;50.620;7.232;2022-10-16T03:15:43;14.80;22.00
20174;DHT22;10246;50.620;7.232;2022-10-16T03:18:09;14.80;22.30
20174;DHT22;10246;50.620;7.232;2022-10-16T03:20:36;14.90;22.20
20174;DHT22;10246;50.620;7.232;2022-10-16T03:23:04;14.90;22.00
20174;DHT22;10246;50.620;7.232;2022-10-16T03:25:33;14.90;21.80
20174;DHT22;10246;50.620;7.232;2022-10-16T03:28:00;14.90;21.70
20174;DHT22;10246;50.620;7.232;2022-10-16T03:30:27;15.00;21.20
20174;DHT22;10246;50.620;7.232;2022-10-16T03:32:53;15.00;20.90
20174;DHT22;10246;50.620;7.232;2022-10-16T03:35:20;15.00;21.10
20174;DHT22;10246;50.620;7.232;2022-10-16T03:37:47;15.00;21.00
20174;DHT22;10246;50.620;7.232;2022-10-16T03:40:16;15.00;20.90
20174;DHT22;10246;50.620;7.232;2022-10-16T03:42:43;15.10;20.20
20174;DHT22;10246;50.620;7.232;2022-10-16T03:45:10;15.20;19.40
20174;DHT22;10246;50.620;7.232;2022-10-16T03:47:37;15.30;18.20
20174;DHT22;10246;50.620;7.232;2022-10-16T03:50:05;15.40;17.70
20174;DHT22;10246;50.620;7.232;2022-10-16T03:52:32;15.40;17.50
20174;DHT22;10246;50.620;7.232;2022-10-16T03:54:58;15.40;17.50
20174;DHT22;10246;50.620;7.232;2022-10-16T03:57:26;15.40;17.10
20174;DHT22;10246;50.620;7.232;2022-10-16T03:59:53;15.40;16.60
20174;DHT22;10246;50.620;7.232;2022-10-16T04:02:20;15.50;16.70
20174;DHT22;10246;50.620;7.232;2022-10-16T04:04:47;15.50;16.60
20174;DHT22;10246;50.620;7.232;2022-10-16T04:07:13;15.50;16.60
20174;DHT22;10246;50.620;7.232;2022-10-16T04:09:41;15.50;17.00
20174;DHT22;10246;50.620;7.232;2022-10-16T04:12:07;15.50;16.50
20174;DHT22;10246;50.620;7.232;2022-10-16T04:14:35;15.50;16.30
20174;DHT22;10246;50.620;7.232;2022-10-16T04:17:02;15.50;15.90
20174;DHT22;10246;50.620;7.232;2022-10-16T04:19:29;15.60;16.00
20174;DHT22;10246;50.620;7.232;2022-10-16T04:21:56;15.50;15.90
20174;DHT22;10246;50.620;7.232;2022-10-16T04:24:22;15.60;16.00
20174;DHT22;10246;50.620;7.232;2022-10-16T04:26:49;15.50;16.30
20174;DHT22;10246;50.620;7.232;2022-10-16T04:29:16;15.60;16.00
20174;DHT22;10246;50.620;7.232;2022-10-16T04:31:44;15.60;16.00
20174;DHT22;10246;50.620;7.232;2022-10-16T04:34:11;15.60;16.00
20174;DHT22;10246;50.620;7.232;2022-10-16T04:36:38;15.60;16.00
20174;DHT22;10246;50.620;7.232;2022-10-16T04:39:04;15.60;15.80
20174;DHT22;10246;50.620;7.232;2022-10-16T04:41:31;15.70;15.40
20174;DHT22;10246;50.620;7.232;2022-10-16T04:43:58;15.70;15.10
20174;DHT22;10246;50.620;7.232;2022-10-16T04:46:24;15.60;15.30
20174;DHT22;10246;50.620;7.232;2022-10-16T04:48:53;15.70;15.30
20174;DHT22;10246;50.620;7.232;2022-10-16T04:51:20;15.70;15.00
20174;DHT22;10246;50.620;7.232;2022-10-16T04:53:46;15.70;15.00
20174;DHT22;10246;50.620;7.232;2022-10-16T04:56:13;15.70;15.20
20174;DHT22;10246;50.620;7.232;2022-10-16T04:58:41;15.70;15.00
20174;DHT22;10246;50.620;7.232;2022-10-16T05:01:07;15.70;15.20
20174;DHT22;10246;50.620;7.232;2022-10-16T05:03:34;15.60;15.20
20174;DHT22;10246;50.620;7.232;2022-10-16T05:06:05;15.60;15.30
20174;DHT22;10246;50.620;7.232;2022-10-16T05:08:32;15.70;15.40
20174;DHT22;10246;50.620;7.232;2022-10-16T05:10:59;15.60;15.70
20174;DHT22;10246;50.620;7.232;2022-10-16T05:13:25;15.60;15.50
20174;DHT22;10246;50.620;7.232;2022-10-16T05:15:52;15.60;16.00
20174;DHT22;10246;50.620;7.232;2022-10-16T05:18:19;15.60;16.00
20174;DHT22;10246;50.620;7.232;2022-10-16T05:20:46;15.60;16.00
20174;DHT22;10246;50.620;7.232;2022-10-16T05:23:14;15.70;16.00
20174;DHT22;10246;50.620;7.232;2022-10-16T05:25:41;15.60;16.00
20174;DHT22;10246;50.620;7.232;2022-10-16T05:28:07;15.60;16.00
20174;DHT22;10246;50.620;7.232;2022-10-16T05:30:34;15.60;16.70
20174;DHT22;10246;50.620;7.232;2022-10-16T05:33:03;15.70;16.50
20174;DHT22;10246;50.620;7.232;2022-10-16T05:35:30;15.70;16.80
20174;DHT22;10246;50.620;7.232;2022-10-16T05:37:56;15.70;16.80
20174;DHT22;10246;50.620;7.232;2022-10-16T05:40:25;15.70;16.80
20174;DHT22;10246;50.620;7.232;2022-10-16T05:42:55;15.60;17.10
20174;DHT22;10246;50.620;7.232;2022-10-16T05:45:21;15.60;17.40
20174;DHT22;10246;50.620;7.232;2022-10-16T05:47:48;15.60;17.50
20174;DHT22;10246;50.620;7.232;2022-10-16T05:50:15;15.60;17.90
20174;DHT22;10246;50.620;7.232;2022-10-16T05:52:42;15.60;18.00
20174;DHT22;10246;50.620;7.232;2022-10-16T05:55:09;15.50;18.20
20174;DHT22;10246;50.620;7.232;2022-10-16T05:57:37;15.60;18.30
20174;DHT22;10246;50.620;7.232;2022-10-16T06:00:05;15.60;18.20
20174;DHT22;10246;50.620;7.232;2022-10-16T06:02:32;15.60;18.30
20174;DHT22;10246;50.620;7.232;2022-10-16T06:04:58;15.60;18.20
20174;DHT22;10246;50.620;7.232;2022-10-16T06:07:25;15.60;18.60
20174;DHT22;10246;50.620;7.232;2022-10-16T06:09:53;15.70;18.00
20174;DHT22;10246;50.620;7.232;2022-10-16T06:12:20;15.70;17.60
20174;DHT22;10246;50.620;7.232;2022-10-16T06:14:48;15.70;17.40
20174;DHT22;10246;50.620;7.232;2022-10-16T06:17:15;15.70;17.30
20174;DHT22;10246;50.620;7.232;2022-10-16T06:19:42;15.70;17.20
20174;DHT22;10246;50.620;7.232;2022-10-16T06:22:09;15.70;17.30
20174;DHT22;10246;50.620;7.232;2022-10-16T06:24:35;15.80;16.90
20174;DHT22;10246;50.620;7.232;2022-10-16T06:27:03;15.70;16.90
20174;DHT22;10246;50.620;7.232;2022-10-16T06:29:30;15.70;16.70
20174;DHT22;10246;50.620;7.232;2022-10-16T06:31:58;15.80;17.00
20174;DHT22;10246;50.620;7.232;2022-10-16T06:34:24;15.80;16.70
20174;DHT22;10246;50.620;7.232;2022-10-16T06:36:51;15.80;16.10
20174;DHT22;10246;50.620;7.232;2022-10-16T06:39:18;15.90;16.30
20174;DHT22;10246;50.620;7.232;2022-10-16T06:41:45;15.90;16.20
20174;DHT22;10246;50.620;7.232;2022-10-16T06:44:11;15.80;16.40
20174;DHT22;10246;50.620;7.232;2022-10-16T06:46:38;15.80;17.60
20174;DHT22;10246;50.620;7.232;2022-10-16T06:49:07;15.70;18.30
20174;DHT22;10246;50.620;7.232;2022-10-16T06:51:33;15.70;18.90
20174;DHT22;10246;50.620;7.232;2022-10-16T06:54:01;15.70;18.80
20174;DHT22;10246;50.620;7.232;2022-10-16T06:56:29;15.60;19.10
20174;DHT22;10246;50.620;7.232;2022-10-16T06:58:56;15.70;19.00
20174;DHT22;10246;50.620;7.232;2022-10-16T07:01:25;15.70;18.20
20174;DHT22;10246;50.620;7.232;2022-10-16T07:03:52;15.80;17.60
20174;DHT22;10246;50.620;7.232;2022-10-16T07:06:21;15.70;17.20
20174;DHT22;10246;50.620;7.232;2022-10-16T07:08:48;15.80;17.10
20174;DHT22;10246;50.620;7.232;2022-10-16T07:11:16;15.80;16.20
20174;DHT22;10246;50.620;7.232;2022-10-16T07:13:44;15.80;16.10
20174;DHT22;10246;50.620;7.232;2022-10-16T07:16:14;15.80;16.10
20174;DHT22;10246;50.620;7.232;2022-10-16T07:18:41;15.90;15.90
20174;DHT22;10246;50.620;7.232;2022-10-16T07:21:12;15.90;15.50
20174;DHT22;10246;50.620;7.232;2022-10-16T07:23:41;16.00;15.20
20174;DHT22;10246;50.620;7.232;2022-10-16T07:26:10;15.90;14.80
20174;DHT22;10246;50.620;7.232;2022-10-16T07:28:38;16.00;14.80
20174;DHT22;10246;50.620;7.232;2022-10-16T07:31:07;16.10;14.80
20174;DHT22;10246;50.620;7.232;2022-10-16T07:33:37;16.10;14.70
20174;DHT22;10246;50.620;7.232;2022-10-16T07:36:04;16.10;14.70
20174;DHT22;10246;50.620;7.232;2022-10-16T07:38:31;16.20;15.10
20174;DHT22;10246;50.620;7.232;2022-10-16T07:41:01;16.20;15.50
20174;DHT22;10246;50.620;7.232;2022-10-16T07:43:27;16.20;15.20
20174;DHT22;10246;50.620;7.232;2022-10-16T07:45:54;16.20;15.20
20174;DHT22;10246;50.620;7.232;2022-10-16T07:48:22;16.20;15.40
20174;DHT22;10246;50.620;7.232;2022-10-16T07:50:50;16.30;15.60
20174;DHT22;10246;50.620;7.232;2022-10-16T07:53:16;16.30;15.60
20174;DHT22;10246;50.620;7.232;2022-10-16T07:55:43;16.40;15.80
20174;DHT22;10246;50.620;7.232;2022-10-16T07:58:11;16.40;14.90
20174;DHT22;10246;50.620;7.232;2022-10-16T08:00:38;16.50;15.30
20174;DHT22;10246;50.620;7.232;2022-10-16T08:03:04;16.60;14.70
20174;DHT22;10246;50.620;7.232;2022-10-16T08:05:33;16.60;15.10
20174;DHT22;10246;50.620;7.232;2022-10-16T08:08:00;16.70;15.70
20174;DHT22;10246;50.620;7.232;2022-10-16T08:10:28;16.70;15.60
20174;DHT22;10246;50.620;7.232;2022-10-16T08:12:55;16.70;15.40
20174;DHT22;10246;50.620;7.232;2022-10-16T08:15:23;16.80;15.40
20174;DHT22;10246;50.620;7.232;2022-10-16T08:17:57;16.80;13.50
20174;DHT22;10246;50.620;7.232;2022-10-16T08:20:25;16.90;12.50
20174;DHT22;10246;50.620;7.232;2022-10-16T08:22:52;17.10;11.80
20174;DHT22;10246;50.620;7.232;2022-10-16T08:25:19;17.20;10.20
20174;DHT22;10246;50.620;7.232;2022-10-16T08:27:46;17.30;8.60
20174;DHT22;10246;50.620;7.232;2022-10-16T08:30:13;17.40;7.80
20174;DHT22;10246;50.620;7.232;2022-10-16T08:32:42;17.50;8.80
20174;DHT22;10246;50.620;7.232;2022-10-16T08:35:09;17.50;8.70
20174;DHT22;10246;50.620;7.232;2022-10-16T08:37:36;17.50;7.80
20174;DHT22;10246;50.620;7.232;2022-10-16T08:40:05;17.50;6.20
20174;DHT22;10246;50.620;7.232;2022-10-16T08:42:45;17.60;6.50
20174;DHT22;10246;50.620;7.232;2022-10-16T08:45:42;17.70;6.00
20174;DHT22;10246;50.620;7.232;2022-10-16T08:48:18;17.90;3.70
20174;DHT22;10246;50.620;7.232;2022-10-16T08:50:47;18.00;3.80
20174;DHT22;10246;50.620;7.232;2022-10-16T08:53:20;18.10;2.30
20174;DHT22;10246;50.620;7.232;2022-10-16T08:55:50;18.20;2.80
20174;DHT22;10246;50.620;7.232;2022-10-16T08:58:19;18.30;2.30
20174;DHT22;10246;50.620;7.232;2022-10-16T09:00:49;18.40;1.00
20174;DHT22;10246;50.620;7.232;2022-10-16T09:03:37;18.40;1.00
20174;DHT22;10246;50.620;7.232;2022-10-16T09:06:21;18.40;1.00
20174;DHT22;10246;50.620;7.232;2022-10-16T09:09:05;18.30;1.00
20174;DHT22;10246;50.620;7.232;2022-10-16T09:11:45;18.30;1.00
20174;DHT22;10246;50.620;7.232;2022-10-16T09:14:29;18.30;1.00
20174;DHT22;10246;50.620;7.232;2022-10-16T09:17:07;18.30;1.00
20174;DHT22;10246;50.620;7.232;2022-10-16T09:19:44;18.30;1.00
20174;DHT22;10246;50.620;7.232;2022-10-16T09:22:14;18.40;1.00
20174;DHT22;10246;50.620;7.232;2022-10-16T09:24:41;18.50;1.00
20174;DHT22;10246;50.620;7.232;2022-10-16T09:27:10;18.60;1.00
20174;DHT22;10246;50.620;7.232;2022-10-16T09:29:37;18.60;1.00
20174;DHT22;10246;50.620;7.232;2022-10-16T09:32:11;18.70;1.00
20174;DHT22;10246;50.620;7.232;2022-10-16T09:34:43;18.70;1.00
20174;DHT22;10246;50.620;7.232;2022-10-16T09:37:13;18.70;1.00
20174;DHT22;10246;50.620;7.232;2022-10-16T09:39:47;18.70;1.00
20174;DHT22;10246;50.620;7.232;2022-10-16T09:42:16;18.80;1.00
20174;DHT22;10246;50.620;7.232;2022-10-16T09:44:47;18.90;1.00
20174;DHT22;10246;50.620;7.232;2022-10-16T09:47:17;19.10;1.00
20174;DHT22;10246;50.620;7.232;2022-10-16T09:49:54;19.20;1.00
20174;DHT22;10246;50.620;7.232;2022-10-16T09:52:22;19.40;1.00
20174;DHT22;10246;50.620;7.232;2022-10-16T09:54:51;19.40;1.00
20174;DHT22;10246;50.620;7.232;2022-10-16T09:57:18;19.60;1.00
20174;DHT22;10246;50.620;7.232;2022-10-16T09:59:49;19.60;1.00
20174;DHT22;10246;50.620;7.232;2022-10-16T10:02:18;19.70;1.00
20174;DHT22;10246;50.620;7.232;2022-10-16T10:04:49;20.00;1.00
20174;DHT22;10246;50.620;7.232;2022-10-16T10:07:23;20.10;1.00
20174;DHT22;10246;50.620;7.232;2022-10-16T10:09:51;20.20;1.00
20174;DHT22;10246;50.620;7.232;2022-10-16T10:12:20;20.20;1.00
20174;DHT22;10246;50.620;7.232;2022-10-16T10:14:48;20.30;1.00
20174;DHT22;10246;50.620;7.232;2022-10-16T10:17:18;20.30;1.00
20174;DHT22;10246;50.620;7.232;2022-10-16T10:19:54;20.40;1.00
20174;DHT22;10246;50.620;7.232;2022-10-16T10:22:31;20.50;1.00
20174;DHT22;10246;50.620;7.232;2022-10-16T10:25:19;20.70;1.00
20174;DHT22;10246;50.620;7.232;2022-10-16T10:28:00;20.80;1.00
20174;DHT22;10246;50.620;7.232;2022-10-16T10:30:37;21.00;1.00
20174;DHT22;10246;50.620;7.232;2022-10-16T10:33:21;20.90;1.00
20174;DHT22;10246;50.620;7.232;2022-10-16T10:35:56;21.10;1.00
20174;DHT22;10246;50.620;7.232;2022-10-16T10:38:32;21.20;1.00
20174;DHT22;10246;50.620;7.232;2022-10-16T10:41:28;21.00;1.00
20174;DHT22;10246;50.620;7.232;2022-10-16T10:44:07;20.90;1.00
20174;DHT22;10246;50.620;7.232;2022-10-16T10:46:41;20.90;1.00
20174;DHT22;10246;50.620;7.232;2022-10-16T10:49:19;21.00;1.00
20174;DHT22;10246;50.620;7.232;2022-10-16T10:51:58;21.00;1.00
20174;DHT22;10246;50.620;7.232;2022-10-16T10:54:35;20.80;1.00
20174;DHT22;10246;50.620;7.232;2022-10-16T10:57:10;20.90;1.00
20174;DHT22;10246;50.620;7.232;2022-10-16T10:59:54;20.90;1.00
20174;DHT22;10246;50.620;7.232;2022-10-16T11:02:29;21.10;1.00
20174;DHT22;10246;50.620;7.232;2022-10-16T11:08:08;21.20;1.00
20174;DHT22;10246;50.620;7.232;2022-10-16T11:10:44;21.30;1.00
20174;DHT22;10246;50.620;7.232;2022-10-16T11:13:20;21.20;1.00
20174;DHT22;10246;50.620;7.232;2022-10-16T11:15:52;21.20;1.00
20174;DHT22;10246;50.620;7.232;2022-10-16T11:18:58;21.20;1.00
20174;DHT22;10246;50.620;7.232;2022-10-16T11:21:28;21.50;1.00
20174;DHT22;10246;50.620;7.232;2022-10-16T11:24:01;21.50;1.00
20174;DHT22;10246;50.620;7.232;2022-10-16T11:26:35;21.60;1.00
20174;DHT22;10246;50.620;7.232;2022-10-16T11:29:04;21.50;1.00
20174;DHT22;10246;50.620;7.232;2022-10-16T11:31:38;21.40;1.00
20174;DHT22;10246;50.620;7.232;2022-10-16T11:34:12;21.40;1.00
20174;DHT22;10246;50.620;7.232;2022-10-16T11:36:46;21.40;1.00
20174;DHT22;10246;50.620;7.232;2022-10-16T11:39:20;21.40;1.00
20174;DHT22;10246;50.620;7.232;2022-10-16T11:41:51;21.50;1.00
20174;DHT22;10246;50.620;7.232;2022-10-16T11:44:33;21.50;1.00
20174;DHT22;10246;50.620;7.232;2022-10-16T11:47:09;21.50;1.00
20174;DHT22;10246;50.620;7.232;2022-10-16T11:49:40;21.40;1.00
20174;DHT22;10246;50.620;7.232;2022-10-16T11:52:13;21.70;1.00
20174;DHT22;10246;50.620;7.232;2022-10-16T11:54:47;22.00;1.00
20174;DHT22;10246;50.620;7.232;2022-10-16T11:57:20;22.10;1.00
20174;DHT22;10246;50.620;7.232;2022-10-16T11:59:51;22.30;1.00
20174;DHT22;10246;50.620;7.232;2022-10-16T12:02:31;22.30;1.00
20174;DHT22;10246;50.620;7.232;2022-10-16T12:05:09;22.40;1.00
20174;DHT22;10246;50.620;7.232;2022-10-16T12:07:41;22.40;1.00
20174;DHT22;10246;50.620;7.232;2022-10-16T12:10:20;22.30;1.00
20174;DHT22;10246;50.620;7.232;2022-10-16T12:12:49;22.10;1.00
20174;DHT22;10246;50.620;7.232;2022-10-16T12:15:23;22.10;1.00
20174;DHT22;10246;50.620;7.232;2022-10-16T12:17:50;22.30;1.00
20174;DHT22;10246;50.620;7.232;2022-10-16T12:20:26;22.30;1.00
20174;DHT22;10246;50.620;7.232;2022-10-16T12:22:57;22.20;1.00
20174;DHT22;10246;50.620;7.232;2022-10-16T12:25:26;22.10;1.00
20174;DHT22;10246;50.620;7.232;2022-10-16T12:28:06;22.00;1.00
20174;DHT22;10246;50.620;7.232;2022-10-16T12:30:35;22.00;1.00
20174;DHT22;10246;50.620;7.232;2022-10-16T12:33:04;21.90;1.00
20174;DHT22;10246;50.620;7.232;2022-10-16T12:35:33;21.80;1.00
20174;DHT22;10246;50.620;7.232;2022-10-16T12:38:12;21.70;1.00
20174;DHT22;10246;50.620;7.232;2022-10-16T12:40:42;21.60;1.00
20174;DHT22;10246;50.620;7.232;2022-10-16T12:43:36;21.50;1.00
20174;DHT22;10246;50.620;7.232;2022-10-16T12:46:19;21.50;1.00
20174;DHT22;10246;50.620;7.232;2022-10-16T12:48:47;21.50;1.00
20174;DHT22;10246;50.620;7.232;2022-10-16T12:51:23;21.60;1.00
20174;DHT22;10246;50.620;7.232;2022-10-16T12:54:00;21.70;1.00
20174;DHT22;10246;50.620;7.232;2022-10-16T12:56:39;21.90;1.00
20174;DHT22;10246;50.620;7.232;2022-10-16T12:59:18;22.20;1.00
20174;DHT22;10246;50.620;7.232;2022-10-16T13:01:59;22.40;1.00
20174;DHT22;10246;50.620;7.232;2022-10-16T13:04:47;22.60;1.00
20174;DHT22;10246;50.620;7.232;2022-10-16T13:07:29;22.50;1.00
20174;DHT22;10246;50.620;7.232;2022-10-16T13:10:09;22.50;1.00
20174;DHT22;10246;50.620;7.232;2022-10-16T13:15:58;22.40;1.00
20174;DHT22;10246;50.620;7.232;2022-10-16T13:18:34;22.40;1.00
20174;DHT22;10246;50.620;7.232;2022-10-16T13:21:19;22.20;1.00
20174;DHT22;10246;50.620;7.232;2022-10-16T13:23:59;22.10;1.00
20174;DHT22;10246;50.620;7.232;2022-10-16T13:26:35;22.00;1.00
20174;DHT22;10246;50.620;7.232;2022-10-16T13:29:04;22.00;1.00
20174;DHT22;10246;50.620;7.232;2022-10-16T13:31:32;21.90;1.00
20174;DHT22;10246;50.620;7.232;2022-10-16T13:34:00;22.00;1.00
20174;DHT22;10246;50.620;7.232;2022-10-16T13:36:29;21.90;1.00
20174;DHT22;10246;50.620;7.232;2022-10-16T13:39:09;21.90;1.00
20174;DHT22;10246;50.620;7.232;2022-10-16T13:41:37;21.90;1.00
20174;DHT22;10246;50.620;7.232;2022-10-16T13:44:05;21.90;1.00
20174;DHT22;10246;50.620;7.232;2022-10-16T13:46:36;21.90;1.00
20174;DHT22;10246;50.620;7.232;2022-10-16T13:49:05;21.90;1.00
20174;DHT22;10246;50.620;7.232;2022-10-16T13:51:32;21.80;1.00
20174;DHT22;10246;50.620;7.232;2022-10-16T13:53:59;21.80;1.00
20174;DHT22;10246;50.620;7.232;2022-10-16T13:56:28;21.80;1.00
20174;DHT22;10246;50.620;7.232;2022-10-16T13:58:59;21.70;1.00
20174;DHT22;10246;50.620;7.232;2022-10-16T14:01:31;21.70;1.00
20174;DHT22;10246;50.620;7.232;2022-10-16T14:04:04;21.60;1.00
20174;DHT22;10246;50.620;7.232;2022-10-16T14:06:32;21.60;1.00
20174;DHT22;10246;50.620;7.232;2022-10-16T14:09:02;21.50;1.00
20174;DHT22;10246;50.620;7.232;2022-10-16T14:11:31;21.40;1.00
20174;DHT22;10246;50.620;7.232;2022-10-16T14:13:59;21.40;1.00
20174;DHT22;10246;50.620;7.232;2022-10-16T14:16:30;21.40;1.00
20174;DHT22;10246;50.620;7.232;2022-10-16T14:18:59;21.40;1.00
20174;DHT22;10246;50.620;7.232;2022-10-16T14:21:28;21.40;1.00
20174;DHT22;10246;50.620;7.232;2022-10-16T14:23:56;21.40;1.00
20174;DHT22;10246;50.620;7.232;2022-10-16T14:26:25;21.30;1.00
20174;DHT22;10246;50.620;7.232;2022-10-16T14:29:09;21.30;1.00
20174;DHT22;10246;50.620;7.232;2022-10-16T14:31:37;21.20;1.00
20174;DHT22;10246;50.620;7.232;2022-10-16T14:34:24;21.20;1.00
20174;DHT22;10246;50.620;7.232;2022-10-16T14:36:54;21.20;1.00
20174;DHT22;10246;50.620;7.232;2022-10-16T14:39:22;21.20;1.00
20174;DHT22;10246;50.620;7.232;2022-10-16T14:41:54;21.10;1.00
20174;DHT22;10246;50.620;7.232;2022-10-16T14:44:28;21.10;1.00
20174;DHT22;10246;50.620;7.232;2022-10-16T14:46:56;21.20;1.00
20174;DHT22;10246;50.620;7.232;2022-10-16T14:49:23;21.10;1.00
20174;DHT22;10246;50.620;7.232;2022-10-16T14:51:50;21.10;1.00
20174;DHT22;10246;50.620;7.232;2022-10-16T14:54:19;21.10;1.00
20174;DHT22;10246;50.620;7.232;2022-10-16T14:56:48;21.10;1.00
20174;DHT22;10246;50.620;7.232;2022-10-16T14:59:19;21.10;1.00
20174;DHT22;10246;50.620;7.232;2022-10-16T15:01:47;21.10;1.00
20174;DHT22;10246;50.620;7.232;2022-10-16T15:04:15;21.00;1.00
20174;DHT22;10246;50.620;7.232;2022-10-16T15:06:43;21.00;1.00
20174;DHT22;10246;50.620;7.232;2022-10-16T15:09:09;21.10;1.00
20174;DHT22;10246;50.620;7.232;2022-10-16T15:11:38;21.10;1.00
20174;DHT22;10246;50.620;7.232;2022-10-16T15:14:05;21.00;1.00
20174;DHT22;10246;50.620;7.232;2022-10-16T15:16:32;20.90;1.00
20174;DHT22;10246;50.620;7.232;2022-10-16T15:18:59;20.90;1.00
20174;DHT22;10246;50.620;7.232;2022-10-16T15:21:28;20.80;1.00
20174;DHT22;10246;50.620;7.232;2022-10-16T15:23:55;20.70;1.00
20174;DHT22;10246;50.620;7.232;2022-10-16T15:26:23;20.70;1.00
20174;DHT22;10246;50.620;7.232;2022-10-16T15:28:51;20.70;1.00
20174;DHT22;10246;50.620;7.232;2022-10-16T15:31:18;20.60;1.00
20174;DHT22;10246;50.620;7.232;2022-10-16T15:33:45;20.60;1.00
20174;DHT22;10246;50.620;7.232;2022-10-16T15:36:23;20.50;1.00
20174;DHT22;10246;50.620;7.232;2022-10-16T15:38:51;20.50;1.00
20174;DHT22;10246;50.620;7.232;2022-10-16T15:41:18;20.50;1.00
20174;DHT22;10246;50.620;7.232;2022-10-16T15:43:48;20.50;1.00
20174;DHT22;10246;50.620;7.232;2022-10-16T15:46:18;20.50;1.00
20174;DHT22;10246;50.620;7.232;2022-10-16T15:48:45;20.40;1.00
20174;DHT22;10246;50.620;7.232;2022-10-16T15:51:12;20.40;1.00
20174;DHT22;10246;50.620;7.232;2022-10-16T15:53:39;20.40;1.00
20174;DHT22;10246;50.620;7.232;2022-10-16T15:56:07;20.30;1.00
20174;DHT22;10246;50.620;7.232;2022-10-16T15:58:34;20.30;1.00
20174;DHT22;10246;50.620;7.232;2022-10-16T16:01:02;20.20;1.00
20174;DHT22;10246;50.620;7.232;2022-10-16T16:03:31;20.20;1.00